Glacier Natl Park, Montana
Current Conditions -  °F | °C
As of 12:55 PM on Monday 24 Nov 2014 (Local Time) from KGPI Reporting Station
Clear Clear  
Wind Chill: 30°   Ceiling: Unl
Heat Index: 38°   Visibility: 10mi
Dew Point: 28°   Wind: 12mph
Humidity: 68%   Direction: 220°SW
Pressure: 30.26"   Gusts: NA
Location:  48.58°N, 113.67°W
Report Text: KGPI 241955Z 22010KT 10SM CLR 03/M02 A3026 RMK AO2 SLP270 T00331022
Loading
Personal Weather Stations






























Interactive Weather Map New forecast layout! Learn more

10-Day Weather Forecast

Advertisements
Track Severe Weather on mobile